Sunday, October 21, 2018, 2:28 AM EDT
Back to Local

KCDW, Caldwell Essex County Airport

Location: Fairfield, NJ, United States Lat: 40.883
Local Time: 2:28 AM EDT ( 6:28 GMT) Lon: -74.283
Time Zone: US/Eastern Elev: 173 ft

Show me the last for .
Show Decoded

2018-10-21 01:53 METAR KCDW 210553Z AUTO 00000KT 10SM BKN100 OVC110 08/08 A2960 RMK AO2 RAE17
                 SLP029 P0000 60002 T00830083 10111 20083 58018 =
2018-10-21 00:53 METAR KCDW 210453Z AUTO 00000KT 9SM -RA OVC050 09/08 A2964 RMK AO2 RAB17 SLP042
                 P0001 T00890083 401780089 =
2018-10-20 23:53 METAR KCDW 210353Z AUTO 20004KT 10SM OVC055 09/08 A2965 RMK AO2 RAE25 SLP045
                 P0000 T00890083 =
2018-10-20 22:53 METAR KCDW 210253Z AUTO 26003KT 6SM -RA BR BKN060 OVC075 09/08 A2966 RMK AO2
                 RAB44 SLP047 P0001 60001 T00940078 51012 =
2018-10-20 21:53 METAR KCDW 210153Z 00000KT 10SM SCT060 OVC090 11/07 A2964 RMK AO2 SLP042
                 T01060067 =
2018-10-20 20:53 METAR KCDW 210053Z 00000KT 10SM BKN070 BKN080 11/07 A2964 RMK AO2 SLP041
                 T01110067 =
2018-10-20 19:53 METAR KCDW 202353Z 00000KT 10SM CLR 11/07 A2962 RMK AO2 SLP035 T01060072 10178
                 20106 53002 =
2018-10-20 18:53 METAR KCDW 202253Z 00000KT 10SM CLR 12/07 A2961 RMK AO2 SLP033 T01170072 =
2018-10-20 17:53 METAR KCDW 202153Z VRB03KT 10SM FEW070 16/05 A2961 RMK AO2 SLP033 T01560050 =
2018-10-20 16:53 METAR KCDW 202053Z 30007KT 10SM FEW060 SCT075 17/06 A2961 RMK AO2 SLP033
                 T01670056 56021 =
2018-10-20 15:53 METAR KCDW 201953Z 29011G19KT 10SM BKN065 17/06 A2962 RMK AO2 SLP036 T01720056 =
2018-10-20 14:53 METAR KCDW 201853Z 24007G16KT 10SM BKN060 17/07 A2965 RMK AO2 SLP044 T01670067 =
2018-10-20 13:53 METAR KCDW 201753Z VRB06KT 10SM SCT035 BKN044 OVC060 16/08 A2968 RMK AO2 SLP054
                 T01560083 10161 20111 58020 =
2018-10-20 12:53 METAR KCDW 201653Z VRB06G16KT 10SM FEW028 BKN038 16/09 A2970 RMK AO2 SLP063
                 T01560089 =
2018-10-20 11:53 METAR KCDW 201553Z 27009G16KT 10SM OVC031 14/09 A2973 RMK AO2 SLP071 T01440089 =
2018-10-20 11:07 METAR KCDW 201507Z 28007KT 10SM OVC029 14/10 A2974 RMK AO2 T01390100 =
2018-10-20 11:00 METAR KCDW 201500Z 28007KT 10SM OVC030 14/11 A2974 RMK AO2 T01390106 =
2018-10-20 10:53 METAR KCDW 201453Z AUTO VRB05G14KT 10SM SCT021 BKN028 OVC035 14/11 A2974 RMK AO2
                 SLP075 T01390106 58009 =
2018-10-20 10:22 METAR KCDW 201422Z AUTO 25009KT 210V290 10SM SCT013 BKN020 BKN026 13/11 A2974
                 RMK AO2 T01330111 =
2018-10-20 09:53 METAR KCDW 201353Z AUTO VRB05KT 10SM OVC070 13/12 A2974 RMK AO2 SLP076 T01280117
                 =
2018-10-20 08:53 METAR KCDW 201253Z AUTO 23005KT 10SM BKN044 BKN055 OVC075 12/11 A2976 RMK AO2
                 SLP084 T01170111 =
2018-10-20 08:22 METAR KCDW 201222Z AUTO 23003KT 10SM SCT014 BKN041 OVC049 12/11 A2977 RMK AO2
                 T01170111 =
2018-10-20 08:12 METAR KCDW 201212Z AUTO VRB03KT 10SM FEW010 BKN015 OVC043 11/11 A2977 RMK AO2
                 T01110111 =
2018-10-20 07:53 METAR KCDW 201153Z AUTO VRB03KT 10SM OVC012 11/11 A2977 RMK AO2 SLP084 60001
                 70001 T01110106 10111 20100 53001 =
2018-10-20 07:19 METAR KCDW 201119Z AUTO VRB04KT 10SM OVC014 11/11 A2976 RMK AO2 T01110106 =
2018-10-20 06:53 METAR KCDW 201053Z 23003KT 10SM BKN016 OVC045 11/11 A2975 RMK AO2 SLP078
                 T01110106 =
2018-10-20 05:53 METAR KCDW 200953Z VRB04KT 10SM OVC055 11/10 A2976 RMK AO2 RAB0856E13 SLP081
                 P0000 T01110100 =
2018-10-20 04:53 METAR KCDW 200853Z 00000KT 10SM OVC070 11/10 A2976 RMK AO2 RAB28E42 SLP083 P0000
                 60001 T01110100 56035 =
2018-10-20 03:53 METAR KCDW 200753Z 24003KT 10SM OVC080 11/09 A2979 RMK AO2 RAB0657E09B36E47
                 SLP092 P0000 T01060089 =
2018-10-20 02:53 METAR KCDW 200653Z 00000KT 10SM OVC100 10/09 A2983 RMK AO2 RAE0554B11E44 SLP107
                 P0001 T01000089 =

Support USWX by starting your Amazon purchase here.